Pagina principale
METAR-TAF:

METAR-TAF

Aeroporti :

Aeroporto di Friedrichshafen

Friedrichshafen, Germania

latitudine: 47-40N, longitudine: 009-31E, altezza: 416 m

Osservazione

Il bollettino è stato emesso 34 minuti fa, alle 18:50 UTC
Vento 7 kt da nord
Temperature 18°C
Umidità 45%
Pressione 1023 hPa
Visibilità 10 km o più
Poco nuvoloso ad un'altezza di 4500 ft
Nubi sparse ad un'altezza di 6800 ft

METAR: EDNY 231850Z 36007KT 9999 FEW045 SCT068 18/06 Q1023

Ora: 21:24 (19:24 UTC)

Previsione

Il bollettino è stato emesso 2 ore e 24 minuti fa, alle 17:00 UTC
Previsione valida dal 23 alle 18 UTC al 24 alle 18 UTC
Vento 5 kt da ovest/nord-ovest
Visibilità 10 km o più
Poco nuvoloso ad un'altezza di 6000 ft
Evoluzione graduale
dal 23 alle 20 UTC al 23 alle 22 UTC
Vento 6 kt da nord/nord-est

TAF: EDNY 231700Z 2318/2418 30005KT 9999 FEW060 BECMG 2320/2322 03006KT

Osservazioni e previsioni meteorologiche di più di 4000 aeroporti (messaggi METAR e TAF).

Le stazioni disponibili sono rappresentate dai dischi gialli e rossi sulla carta.

Puntare il mouse per vedere il nome della stazione.

Clicca sopra per visualizzare le osservazioni e previsioni meteorologiche.

Per cambiare la mappa : fare clic sui pulsanti verdi con una croce nera per ingrandire, il pulsante verde con un trattino per diminuire, o sulla freccia verde per le mappe adiacenti.


METAR-TAF: